createdAt,value
2018-05-31T00:00:58.196Z,95.83
2018-05-31T00:02:00.224Z,96.12
2018-05-31T00:02:59.811Z,96.41
2018-05-31T00:03:59.785Z,96.31
2018-05-31T00:05:00.805Z,96.22
2018-05-31T00:06:49.442Z,96.99
2018-05-31T00:07:49.458Z,97.09
2018-05-31T00:08:47.782Z,96.99
2018-05-31T00:09:48.205Z,97.19
2018-05-31T00:10:50.399Z,97.19
2018-05-31T00:11:49.405Z,96.80
2018-05-31T00:12:47.811Z,97.28
2018-05-31T00:14:41.693Z,97.28
2018-05-31T00:15:37.454Z,97.28
2018-05-31T00:16:38.966Z,97.28
2018-05-31T00:17:39.145Z,97.42
2018-05-31T00:18:37.461Z,98.20
2018-05-31T00:19:37.424Z,98.10
2018-05-31T00:20:37.464Z,97.91
2018-05-31T00:21:24.678Z,97.81
2018-05-31T00:22:24.579Z,98.00
2018-05-31T00:23:24.574Z,98.00
2018-05-31T00:24:24.832Z,98.10
2018-05-31T00:25:24.485Z,98.20
2018-05-31T00:26:24.527Z,98.00
2018-05-31T00:27:24.547Z,98.78
2018-05-31T00:28:31.170Z,98.68
2018-05-31T00:31:56.173Z,98.97
2018-05-31T00:32:56.201Z,98.87
2018-05-31T00:33:56.263Z,98.97
2018-05-31T00:34:56.687Z,99.16
2018-05-31T00:35:56.201Z,99.55
2018-05-31T00:36:56.244Z,99.65
2018-05-31T00:37:56.233Z,99.84
2018-05-31T00:38:48.406Z,99.45
2018-05-31T00:39:47.985Z,99.99
2018-05-31T00:40:47.990Z,99.99
2018-05-31T00:41:50.115Z,99.99
2018-05-31T00:42:48.032Z,99.99
2018-05-31T00:43:48.435Z,99.99
2018-05-31T00:44:48.057Z,99.99
2018-05-31T00:45:50.038Z,99.99
2018-05-31T00:46:48.086Z,99.99
2018-05-31T00:49:13.623Z,99.99
2018-05-31T00:50:17.158Z,99.99
2018-05-31T00:51:12.450Z,99.99
2018-05-31T00:52:12.431Z,99.99
2018-05-31T00:53:12.858Z,99.99
2018-05-31T00:54:12.430Z,99.99
2018-05-31T00:55:12.434Z,99.99
2018-05-31T00:56:12.453Z,99.99
2018-05-31T00:57:12.472Z,99.99
2018-05-31T00:58:12.496Z,99.99
2018-05-31T00:59:12.488Z,99.99
2018-05-31T01:02:56.212Z,99.99
2018-05-31T01:03:54.110Z,99.99
2018-05-31T01:04:54.118Z,99.99
2018-05-31T01:05:54.392Z,99.99
2018-05-31T01:06:55.118Z,99.99
2018-05-31T01:07:54.109Z,99.99
2018-05-31T01:08:55.144Z,99.99
2018-05-31T01:16:17.834Z,99.99
2018-05-31T01:17:15.970Z,99.99
2018-05-31T01:18:15.865Z,99.99
2018-05-31T01:19:15.974Z,99.99
2018-05-31T01:20:16.835Z,99.99
2018-05-31T01:21:15.842Z,99.99
2018-05-31T01:25:33.310Z,99.99
2018-05-31T01:26:31.306Z,99.99
2018-05-31T01:27:31.322Z,99.99
2018-05-31T01:28:31.393Z,99.99
2018-05-31T01:29:31.440Z,99.99
2018-05-31T01:30:31.318Z,99.99
2018-05-31T01:31:31.337Z,99.99
2018-05-31T01:33:24.055Z,99.99
2018-05-31T01:34:23.972Z,99.99
2018-05-31T01:35:23.989Z,99.99
2018-05-31T01:36:24.026Z,99.99
2018-05-31T01:37:24.260Z,99.99
2018-05-31T01:38:23.977Z,99.99
2018-05-31T01:39:23.934Z,99.99
2018-05-31T01:40:25.979Z,99.99
2018-05-31T01:43:05.981Z,99.99
2018-05-31T01:44:05.902Z,99.99
2018-05-31T01:45:06.067Z,99.99
2018-05-31T01:46:07.187Z,99.99
2018-05-31T01:47:05.860Z,99.99
2018-05-31T01:48:07.935Z,99.99
2018-05-31T01:53:24.948Z,99.99
2018-05-31T01:54:27.736Z,99.99
2018-05-31T01:55:22.935Z,99.99
2018-05-31T01:56:22.834Z,99.99
2018-05-31T01:57:23.052Z,99.99
2018-05-31T01:58:23.830Z,99.99
2018-05-31T01:59:22.844Z,99.99
2018-05-31T02:04:59.662Z,99.99
2018-05-31T02:05:59.077Z,99.99
2018-05-31T02:06:58.913Z,99.99
2018-05-31T02:07:58.895Z,99.99
2018-05-31T02:09:00.329Z,99.99
2018-05-31T02:09:58.900Z,99.99
2018-05-31T02:10:59.910Z,99.99
2018-05-31T02:11:58.934Z,99.99
2018-05-31T02:13:00.972Z,99.99
2018-05-31T02:15:22.559Z,99.99
2018-05-31T02:17:01.497Z,99.99
2018-05-31T02:17:22.552Z,99.99
2018-05-31T02:18:22.551Z,99.99
2018-05-31T02:31:26.781Z,99.99
2018-05-31T02:32:26.361Z,99.99
2018-05-31T02:33:26.468Z,99.99
2018-05-31T02:34:26.708Z,99.99
2018-05-31T02:35:26.376Z,99.99
2018-05-31T02:36:27.446Z,99.99
2018-05-31T02:38:15.360Z,99.99
2018-05-31T02:39:13.353Z,99.99
2018-05-31T02:40:13.405Z,99.99
2018-05-31T02:41:13.874Z,99.99
2018-05-31T02:42:14.427Z,99.99
2018-05-31T02:43:13.410Z,99.99
2018-05-31T02:44:14.424Z,99.99
2018-05-31T02:45:13.427Z,99.99
2018-05-31T02:46:08.459Z,99.99
2018-05-31T02:47:07.719Z,99.99
2018-05-31T02:48:07.763Z,99.99
2018-05-31T02:49:08.785Z,99.99
2018-05-31T02:50:09.021Z,99.99
2018-05-31T02:51:07.726Z,99.99
2018-05-31T02:52:07.748Z,99.99
2018-05-31T02:53:56.446Z,99.99
2018-05-31T02:54:56.127Z,99.99
2018-05-31T02:55:56.458Z,99.99
2018-05-31T02:57:00.685Z,99.99
2018-05-31T02:57:56.031Z,99.99
2018-05-31T02:58:58.057Z,99.99
2018-05-31T02:59:56.032Z,99.99
2018-05-31T03:00:56.064Z,99.99
2018-05-31T03:01:56.076Z,99.99
2018-05-31T03:03:46.453Z,99.99
2018-05-31T03:28:33.920Z,99.99
2018-05-31T03:29:31.800Z,99.99
2018-05-31T03:30:31.823Z,99.99
2018-05-31T03:31:33.665Z,99.99
2018-05-31T03:32:32.634Z,99.99
2018-05-31T03:33:31.678Z,99.99
2018-05-31T03:34:31.687Z,99.99
2018-05-31T03:35:31.716Z,99.99
2018-05-31T03:36:31.730Z,99.99
2018-05-31T03:37:31.772Z,99.99
2018-05-31T03:39:21.152Z,99.99
2018-05-31T03:40:19.917Z,99.99
2018-05-31T03:41:18.790Z,99.99
2018-05-31T03:42:24.822Z,99.99
2018-05-31T03:43:18.815Z,99.99
2018-05-31T03:45:06.537Z,99.99
2018-05-31T03:46:06.449Z,99.99
2018-05-31T03:47:07.373Z,99.99
2018-05-31T03:48:06.451Z,99.99
2018-05-31T03:49:53.317Z,99.99
2018-05-31T03:50:53.223Z,99.99
2018-05-31T03:51:53.266Z,99.99
2018-05-31T03:52:53.516Z,99.99
2018-05-31T03:53:53.254Z,99.99
2018-05-31T03:55:53.905Z,99.99
2018-05-31T03:56:53.792Z,99.99
2018-05-31T03:57:53.757Z,99.99
2018-05-31T03:58:53.774Z,99.99
2018-05-31T03:59:54.153Z,99.99
2018-05-31T04:00:53.793Z,99.99
2018-05-31T04:01:53.745Z,99.99
2018-05-31T04:03:42.798Z,99.99
2018-05-31T04:04:43.890Z,99.99
2018-05-31T04:05:42.787Z,99.99
2018-05-31T04:06:42.988Z,99.99
2018-05-31T04:07:42.787Z,99.99
2018-05-31T04:08:42.839Z,99.99
2018-05-31T04:10:52.549Z,99.99
2018-05-31T04:11:52.471Z,99.99
2018-05-31T04:13:48.997Z,99.99
2018-05-31T04:14:47.670Z,99.99
2018-05-31T04:15:47.752Z,99.99
2018-05-31T04:16:47.682Z,99.99
2018-05-31T04:17:47.786Z,99.99
2018-05-31T04:18:47.682Z,99.99
2018-05-31T04:19:47.720Z,99.99
2018-05-31T04:23:05.165Z,99.99
2018-05-31T04:24:03.139Z,99.99
2018-05-31T04:25:03.077Z,99.99
2018-05-31T04:26:03.136Z,99.99
2018-05-31T04:27:03.134Z,99.99
2018-05-31T04:28:04.285Z,99.99
2018-05-31T04:29:03.141Z,99.99
2018-05-31T04:30:03.161Z,99.99
2018-05-31T04:31:03.188Z,99.99
2018-05-31T04:32:17.526Z,99.99
2018-05-31T04:33:18.459Z,99.99
2018-05-31T04:34:17.658Z,99.99
2018-05-31T04:35:19.473Z,99.99
2018-05-31T04:36:17.442Z,99.99
2018-05-31T04:37:17.462Z,99.99
2018-05-31T04:38:17.528Z,99.99
2018-05-31T04:39:18.494Z,99.99
2018-05-31T04:40:17.437Z,99.99
2018-05-31T04:41:19.493Z,99.99
2018-05-31T04:42:17.471Z,99.99
2018-05-31T04:44:22.086Z,99.99
2018-05-31T04:45:22.087Z,99.99
2018-05-31T04:47:25.613Z,99.99
2018-05-31T04:48:24.453Z,99.99
2018-05-31T04:49:24.517Z,99.99
2018-05-31T04:50:24.717Z,99.99
2018-05-31T04:51:24.504Z,99.99
2018-05-31T04:53:13.439Z,99.99
2018-05-31T04:54:11.486Z,99.99
2018-05-31T04:55:12.488Z,99.99
2018-05-31T04:56:11.583Z,99.99
2018-05-31T04:57:11.439Z,99.99
2018-05-31T04:58:11.496Z,99.99
2018-05-31T05:00:04.186Z,99.99
2018-05-31T05:01:05.129Z,99.65
2018-05-31T05:03:27.022Z,99.65
2018-05-31T05:04:26.545Z,99.99
2018-05-31T05:05:26.574Z,99.99
2018-05-31T05:06:28.769Z,99.84
2018-05-31T05:07:26.572Z,99.35
2018-05-31T05:08:26.566Z,99.26
2018-05-31T05:10:14.549Z,99.16
2018-05-31T05:11:14.567Z,99.11
2018-05-31T05:12:15.611Z,98.92
2018-05-31T05:13:14.671Z,99.88
2018-05-31T05:14:14.571Z,99.79
2018-05-31T05:16:01.591Z,99.99
2018-05-31T05:17:01.420Z,99.99
2018-05-31T05:18:01.383Z,99.99
2018-05-31T05:19:01.638Z,99.99
2018-05-31T05:20:01.380Z,99.99
2018-05-31T05:21:01.409Z,99.88
2018-05-31T05:22:01.392Z,99.40
2018-05-31T05:23:01.429Z,99.99
2018-05-31T05:24:01.452Z,99.50
2018-05-31T05:25:01.452Z,99.21
2018-05-31T05:26:01.449Z,99.11
2018-05-31T05:27:01.507Z,98.25
2018-05-31T05:28:01.495Z,98.63
2018-05-31T05:29:01.524Z,98.44
2018-05-31T05:30:01.530Z,97.96
2018-05-31T05:31:01.533Z,98.30
2018-05-31T05:32:01.566Z,98.39
2018-05-31T05:33:53.427Z,98.00
2018-05-31T05:34:54.106Z,97.72
2018-05-31T05:35:53.104Z,97.91
2018-05-31T05:36:54.169Z,97.72
2018-05-31T05:37:53.188Z,97.86
2018-05-31T05:38:53.167Z,96.99
2018-05-31T05:39:53.342Z,96.70
2018-05-31T05:40:54.173Z,96.70
2018-05-31T05:41:53.214Z,96.22
2018-05-31T05:43:49.946Z,96.51
2018-05-31T05:44:50.791Z,95.88
2018-05-31T05:45:49.833Z,95.68
2018-05-31T05:46:50.786Z,95.68
2018-05-31T05:47:49.975Z,95.10
2018-05-31T05:48:49.791Z,95.34
2018-05-31T05:49:49.803Z,94.91
2018-05-31T05:51:36.810Z,94.72
2018-05-31T05:52:36.802Z,94.72
2018-05-31T05:53:36.805Z,94.72
2018-05-31T05:54:36.861Z,95.10
2018-05-31T06:04:03.652Z,94.09
2018-05-31T06:05:03.547Z,94.09
2018-05-31T06:06:03.641Z,94.28
2018-05-31T06:07:03.635Z,94.09
2018-05-31T06:08:03.612Z,93.99
2018-05-31T06:09:52.087Z,93.80
2018-05-31T06:10:53.054Z,93.99
2018-05-31T06:11:52.067Z,93.99
2018-05-31T06:12:52.164Z,94.04
2018-05-31T06:13:52.052Z,92.93
2018-05-31T06:14:52.080Z,93.65
2018-05-31T06:16:43.465Z,93.65
2018-05-31T06:17:43.370Z,93.36
2018-05-31T06:19:39.915Z,92.97
2018-05-31T06:20:42.003Z,93.17
2018-05-31T06:21:40.330Z,93.36
2018-05-31T06:22:39.919Z,92.40
2018-05-31T06:23:39.895Z,93.07
2018-05-31T06:24:39.964Z,92.88
2018-05-31T06:26:28.136Z,92.49
2018-05-31T06:27:26.912Z,92.49
2018-05-31T06:28:27.017Z,91.91
2018-05-31T06:29:27.092Z,92.00
2018-05-31T06:30:27.126Z,92.58
2018-05-31T06:31:27.982Z,92.88
2018-05-31T06:32:26.960Z,92.20
2018-05-31T06:33:26.999Z,92.20
2018-05-31T06:34:26.999Z,92.40
2018-05-31T06:36:28.927Z,92.68
2018-05-31T06:37:28.867Z,92.20
2018-05-31T06:38:28.865Z,91.86
2018-05-31T06:39:28.921Z,91.86
2018-05-31T06:40:28.903Z,91.18
2018-05-31T06:41:34.047Z,91.18
2018-05-31T06:42:28.878Z,90.80
2018-05-31T06:43:28.899Z,90.45
2018-05-31T06:44:28.899Z,90.36
2018-05-31T06:46:16.618Z,90.16
2018-05-31T06:47:16.705Z,90.02
2018-05-31T06:48:16.613Z,89.68
2018-05-31T06:50:16.668Z,90.45
2018-05-31T06:51:16.683Z,90.36
2018-05-31T06:52:16.650Z,90.74
2018-05-31T06:53:16.721Z,89.77
2018-05-31T06:55:13.486Z,89.48
2018-05-31T06:56:13.213Z,89.58
2018-05-31T06:57:15.342Z,90.45
2018-05-31T06:58:13.330Z,89.23
2018-05-31T06:59:13.246Z,89.33
2018-05-31T07:00:13.210Z,89.43
2018-05-31T07:02:05.459Z,89.04
2018-05-31T07:03:06.165Z,89.62
2018-05-31T07:04:05.099Z,88.75
2018-05-31T07:05:05.152Z,88.37
2018-05-31T07:06:05.049Z,88.75
2018-05-31T07:07:05.115Z,87.92
2018-05-31T07:08:05.103Z,87.44
2018-05-31T07:08:53.537Z,87.24
2018-05-31T07:09:52.248Z,87.44
2018-05-31T07:10:52.332Z,87.34
2018-05-31T07:11:52.368Z,87.44
2018-05-31T07:12:52.406Z,87.92
2018-05-31T07:13:52.612Z,87.63
2018-05-31T07:14:52.392Z,87.38
2018-05-31T07:15:52.337Z,87.96
2018-05-31T07:16:52.377Z,87.96
2018-05-31T07:17:52.405Z,87.38
2018-05-31T07:18:52.475Z,87.38
2018-05-31T07:20:39.588Z,86.71
2018-05-31T07:21:39.364Z,86.71
2018-05-31T07:22:39.366Z,86.61
2018-05-31T07:23:39.498Z,86.32
2018-05-31T07:24:39.387Z,85.93
2018-05-31T07:25:39.388Z,86.61
2018-05-31T07:26:39.400Z,86.80
2018-05-31T07:27:39.433Z,86.32
2018-05-31T07:29:26.326Z,86.32
2018-05-31T07:30:26.340Z,86.65
2018-05-31T07:31:26.239Z,86.12
2018-05-31T07:32:26.342Z,85.64
2018-05-31T07:33:26.476Z,85.35
2018-05-31T07:34:26.337Z,85.83
2018-05-31T07:35:26.297Z,86.22
2018-05-31T07:36:14.970Z,86.07
2018-05-31T07:37:14.967Z,86.12
2018-05-31T07:38:14.912Z,85.06
2018-05-31T07:39:14.944Z,85.68
2018-05-31T07:40:14.908Z,86.32
2018-05-31T07:41:14.957Z,86.36
2018-05-31T07:43:02.309Z,85.19
2018-05-31T07:44:02.163Z,85.88
2018-05-31T07:45:02.179Z,86.36
2018-05-31T07:46:02.162Z,85.68
2018-05-31T07:47:02.220Z,85.10
2018-05-31T07:48:02.243Z,85.19
2018-05-31T07:49:04.300Z,85.10
2018-05-31T07:50:49.219Z,85.00
2018-05-31T07:51:49.179Z,84.71
2018-05-31T07:52:50.354Z,85.63
2018-05-31T07:53:49.332Z,85.72
2018-05-31T07:54:49.228Z,85.24
2018-05-31T07:55:49.220Z,84.85
2018-05-31T07:56:49.250Z,84.27
2018-05-31T07:57:50.316Z,83.69
2018-05-31T07:58:49.299Z,83.69
2018-05-31T07:59:49.423Z,83.88
2018-05-31T08:01:43.408Z,83.39
2018-05-31T08:02:43.350Z,83.88
2018-05-31T08:03:48.184Z,83.69
2018-05-31T08:04:43.307Z,83.53
2018-05-31T08:05:45.493Z,83.44
2018-05-31T08:15:35.042Z,83.92
2018-05-31T08:16:34.989Z,83.24
2018-05-31T08:17:35.020Z,82.37
2018-05-31T08:18:35.059Z,82.27
2018-05-31T08:19:35.031Z,82.07
2018-05-31T08:20:41.673Z,82.27
2018-05-31T08:21:34.928Z,82.46
2018-05-31T08:22:35.103Z,83.04
2018-05-31T08:26:40.404Z,81.49
2018-05-31T08:27:45.975Z,81.01
2018-05-31T08:28:40.380Z,80.81
2018-05-31T08:29:41.615Z,81.10
2018-05-31T08:30:40.337Z,81.68
2018-05-31T08:32:41.064Z,82.27
2018-05-31T08:38:47.901Z,80.66
2018-05-31T08:39:50.195Z,80.36
2018-05-31T08:40:48.053Z,80.66
2018-05-31T08:41:49.946Z,80.27
2018-05-31T08:42:47.859Z,80.85
2018-05-31T08:43:47.770Z,80.50
2018-05-31T08:44:47.792Z,80.02
2018-05-31T08:45:35.167Z,79.82
2018-05-31T08:46:35.068Z,80.11
2018-05-31T08:47:35.143Z,80.60
2018-05-31T08:48:35.071Z,78.75
2018-05-31T08:49:35.185Z,79.04
2018-05-31T08:50:35.134Z,78.17
2018-05-31T08:51:35.321Z,78.36
2018-05-31T08:52:35.155Z,78.46
2018-05-31T08:53:36.218Z,78.46
2018-05-31T08:54:35.169Z,77.87
2018-05-31T08:55:37.265Z,78.36
2018-05-31T08:56:35.219Z,78.79
2018-05-31T08:58:53.100Z,78.59
2018-05-31T08:59:53.093Z,78.59
2018-05-31T09:00:53.112Z,77.91
2018-05-31T09:01:53.138Z,77.82
2018-05-31T09:02:53.183Z,78.89
2018-05-31T09:03:53.224Z,78.11
2018-05-31T09:04:53.264Z,76.84
2018-05-31T09:05:58.154Z,76.98
2018-05-31T09:06:53.170Z,76.30
2018-05-31T09:07:53.249Z,76.30
2018-05-31T09:08:53.204Z,74.55
2018-05-31T09:09:53.217Z,73.57
2018-05-31T09:10:53.250Z,74.06
2018-05-31T09:11:50.015Z,74.74
2018-05-31T09:12:49.989Z,74.97
2018-05-31T09:13:50.005Z,74.29
2018-05-31T09:14:50.006Z,74.87
2018-05-31T09:16:38.540Z,74.68
2018-05-31T09:17:38.218Z,75.40
2018-05-31T09:18:38.329Z,74.72
2018-05-31T09:19:38.297Z,74.62
2018-05-31T09:20:38.592Z,74.62
2018-05-31T09:21:38.273Z,74.37
2018-05-31T09:22:39.360Z,73.16
2018-05-31T09:24:28.602Z,73.29
2018-05-31T09:25:26.307Z,73.29
2018-05-31T09:26:26.407Z,73.97
2018-05-31T09:27:26.414Z,72.51
2018-05-31T09:28:26.335Z,72.02
2018-05-31T09:29:26.376Z,73.10
2018-05-31T09:30:26.362Z,72.19
2018-05-31T09:31:26.498Z,72.31
2018-05-31T09:33:18.920Z,73.29
2018-05-31T09:34:20.029Z,72.84
2018-05-31T09:35:18.943Z,72.06
2018-05-31T09:36:19.204Z,71.47
2018-05-31T09:37:18.915Z,70.43
2018-05-31T09:38:18.988Z,70.92
2018-05-31T09:40:33.295Z,70.37
2018-05-31T09:41:33.273Z,71.06
2018-05-31T09:45:06.292Z,69.04
2018-05-31T09:46:07.357Z,68.16
2018-05-31T09:47:06.284Z,68.65
2018-05-31T09:48:06.469Z,67.97
2018-05-31T09:49:06.297Z,68.39
2018-05-31T09:50:54.559Z,68.71
2018-05-31T09:51:54.421Z,66.93
2018-05-31T09:52:54.347Z,65.78
2018-05-31T09:53:54.833Z,66.66
2018-05-31T09:54:54.372Z,65.20
2018-05-31T09:55:54.406Z,64.51
2018-05-31T09:56:54.428Z,63.93
2018-05-31T09:59:51.767Z,65.36
2018-05-31T10:00:51.835Z,65.36
2018-05-31T10:01:51.817Z,65.95
2018-05-31T10:02:51.746Z,66.08
2018-05-31T10:03:51.839Z,65.88
2018-05-31T10:04:51.773Z,65.10
2018-05-31T10:05:53.106Z,63.24
2018-05-31T10:06:51.822Z,62.56
2018-05-31T10:07:51.919Z,63.41
2018-05-31T10:08:51.815Z,63.12
2018-05-31T10:10:48.989Z,64.06
2018-05-31T10:11:50.962Z,64.94
2018-05-31T10:12:48.858Z,65.82
2018-05-31T10:13:49.106Z,65.23
2018-05-31T10:14:48.927Z,64.94
2018-05-31T10:15:48.887Z,64.81
2018-05-31T10:17:43.603Z,64.75
2018-05-31T10:18:43.594Z,64.81
2018-05-31T10:19:43.763Z,64.65
2018-05-31T10:20:43.676Z,64.84
2018-05-31T10:21:43.872Z,64.26
2018-05-31T10:22:48.147Z,63.09
2018-05-31T10:23:43.627Z,63.48
2018-05-31T10:24:48.658Z,63.48
2018-05-31T10:25:43.670Z,64.45
2018-05-31T10:26:44.779Z,64.26
2018-05-31T10:27:43.701Z,64.36
2018-05-31T10:29:31.011Z,64.55
2018-05-31T10:30:37.770Z,65.04
2018-05-31T10:31:31.012Z,65.53
2018-05-31T10:32:37.675Z,66.11
2018-05-31T10:34:25.786Z,63.02
2018-05-31T10:35:49.787Z,62.66
2018-05-31T10:36:25.674Z,63.15
2018-05-31T10:37:25.763Z,62.66
2018-05-31T10:38:25.899Z,62.29
2018-05-31T10:39:31.787Z,61.02
2018-05-31T10:40:25.715Z,61.41
2018-05-31T10:41:26.889Z,61.41
2018-05-31T10:45:58.232Z,60.57
2018-05-31T10:46:59.322Z,60.76
2018-05-31T10:47:58.240Z,61.44
2018-05-31T10:49:00.313Z,60.50
2018-05-31T10:49:58.245Z,60.47
2018-05-31T10:51:00.310Z,60.37
2018-05-31T10:52:52.706Z,60.76
2018-05-31T10:53:52.343Z,60.50
2018-05-31T10:54:53.373Z,59.81
2018-05-31T10:55:52.355Z,58.34
2018-05-31T10:56:56.969Z,58.44
2018-05-31T10:57:52.354Z,59.42
2018-05-31T10:58:54.413Z,60.42
2018-05-31T10:59:41.966Z,60.92
2018-05-31T11:00:42.975Z,59.74
2018-05-31T11:01:41.916Z,58.89
2018-05-31T11:02:43.021Z,57.00
2018-05-31T11:03:41.951Z,58.17
2018-05-31T11:04:42.094Z,57.98
2018-05-31T11:06:47.321Z,58.11
2018-05-31T11:07:42.071Z,56.44
2018-05-31T11:08:44.269Z,56.73
2018-05-31T11:09:42.079Z,59.08
2018-05-31T11:10:48.757Z,57.91
2018-05-31T11:11:42.125Z,56.47
2018-05-31T11:12:42.234Z,56.47
2018-05-31T11:13:42.194Z,56.27
2018-05-31T11:14:42.256Z,56.47
2018-05-31T11:16:29.412Z,55.78
2018-05-31T11:17:29.410Z,56.37
2018-05-31T11:18:29.419Z,55.98
2018-05-31T11:19:29.487Z,55.98
2018-05-31T11:20:29.373Z,55.49
2018-05-31T11:22:21.596Z,55.58
2018-05-31T11:23:22.615Z,55.58
2018-05-31T11:24:21.994Z,55.78
2018-05-31T11:25:21.647Z,55.19
2018-05-31T11:26:21.530Z,54.70
2018-05-31T11:27:21.682Z,54.50
2018-05-31T11:28:21.633Z,54.80
2018-05-31T11:29:21.669Z,54.02
2018-05-31T11:30:21.584Z,53.53
2018-05-31T11:31:21.698Z,54.02
2018-05-31T11:33:29.857Z,53.53
2018-05-31T11:34:29.767Z,53.33
2018-05-31T11:35:29.771Z,53.23
2018-05-31T11:36:29.954Z,53.50
2018-05-31T11:37:29.802Z,53.59
2018-05-31T11:38:29.946Z,54.25
2018-05-31T11:39:29.828Z,54.55
2018-05-31T11:41:17.040Z,54.06
2018-05-31T11:42:16.829Z,54.55
2018-05-31T11:43:16.820Z,55.14
2018-05-31T11:44:16.998Z,55.82
2018-05-31T11:45:16.980Z,56.02
2018-05-31T11:46:16.978Z,57.00
2018-05-31T11:48:05.995Z,55.24
2018-05-31T11:49:03.639Z,54.55
2018-05-31T11:50:03.667Z,54.25
2018-05-31T11:51:03.841Z,54.68
2018-05-31T11:52:03.796Z,54.41
2018-05-31T11:53:04.828Z,52.94
2018-05-31T11:54:03.720Z,52.94
2018-05-31T11:55:03.829Z,53.43
2018-05-31T11:56:03.727Z,53.53
2018-05-31T11:57:03.844Z,53.65
2018-05-31T11:58:03.789Z,52.96
2018-05-31T11:59:04.874Z,52.76
2018-05-31T12:00:03.806Z,51.89
2018-05-31T12:01:03.871Z,51.29
2018-05-31T12:02:03.844Z,52.59
2018-05-31T12:03:51.183Z,51.42
2018-05-31T12:04:52.030Z,51.03
2018-05-31T12:05:50.970Z,50.24
2018-05-31T12:06:51.086Z,50.95
2018-05-31T12:07:51.029Z,50.95
2018-05-31T12:08:52.044Z,50.07
2018-05-31T12:09:51.066Z,50.16
2018-05-31T12:10:51.201Z,48.79
2018-05-31T12:11:51.065Z,48.57
2018-05-31T12:12:51.145Z,49.26
2018-05-31T12:15:01.149Z,49.55
2018-05-31T12:16:01.212Z,50.34
2018-05-31T12:17:01.353Z,49.07
2018-05-31T12:18:01.303Z,49.75
2018-05-31T12:19:01.742Z,50.22
2018-05-31T12:20:02.293Z,51.27
2018-05-31T12:21:48.697Z,51.86
2018-05-31T12:22:48.607Z,51.86
2018-05-31T12:23:48.767Z,52.25
2018-05-31T12:24:48.621Z,52.74
2018-05-31T12:26:39.074Z,52.64
2018-05-31T12:27:39.150Z,52.45
2018-05-31T12:28:39.101Z,52.94
2018-05-31T12:29:39.409Z,52.15
2018-05-31T12:30:39.137Z,51.66
2018-05-31T12:31:39.122Z,50.98
2018-05-31T12:32:39.195Z,50.68
2018-05-31T12:34:37.544Z,51.56
2018-05-31T12:35:37.328Z,50.20
2018-05-31T12:36:37.350Z,49.92
2018-05-31T12:37:37.448Z,49.73
2018-05-31T12:38:37.719Z,50.22
2018-05-31T12:39:37.407Z,49.65
2018-05-31T12:40:37.410Z,50.02
2018-05-31T12:42:26.299Z,49.65
2018-05-31T12:43:26.362Z,48.57
2018-05-31T12:44:26.297Z,49.65
2018-05-31T12:45:26.335Z,50.76
2018-05-31T12:46:26.328Z,48.60
2018-05-31T12:47:32.202Z,48.69
2018-05-31T12:48:26.424Z,47.71
2018-05-31T12:49:28.379Z,47.42
2018-05-31T12:50:26.416Z,47.81
2018-05-31T12:51:26.434Z,47.81
2018-05-31T12:52:26.424Z,47.52
2018-05-31T12:53:27.459Z,47.22
2018-05-31T12:56:04.475Z,47.89
2018-05-31T12:57:04.554Z,48.47
2018-05-31T12:58:04.505Z,48.86
2018-05-31T12:59:04.507Z,48.67
2018-05-31T13:00:04.529Z,48.55
2018-05-31T13:01:04.524Z,48.94
2018-05-31T13:02:04.625Z,48.08
2018-05-31T13:02:56.264Z,48.45
2018-05-31T13:03:56.245Z,48.35
2018-05-31T13:04:56.181Z,48.45
2018-05-31T13:05:57.295Z,48.65
2018-05-31T13:06:56.255Z,48.45
2018-05-31T13:07:56.286Z,48.16
2018-05-31T13:08:56.277Z,48.55
2018-05-31T13:09:57.459Z,49.14
2018-05-31T13:10:56.307Z,48.94
2018-05-31T13:11:56.417Z,48.74
2018-05-31T13:13:45.043Z,49.07
2018-05-31T13:14:47.401Z,47.89
2018-05-31T13:15:43.161Z,47.69
2018-05-31T13:16:44.948Z,47.59
2018-05-31T13:17:44.952Z,47.49
2018-05-31T13:18:43.400Z,46.81
2018-05-31T13:19:43.239Z,46.71
2018-05-31T13:20:43.452Z,46.69
2018-05-31T13:21:43.274Z,46.88
2018-05-31T13:22:44.426Z,46.88
2018-05-31T13:23:43.316Z,47.27
2018-05-31T13:25:00.060Z,46.39
2018-05-31T13:26:32.561Z,46.69
2018-05-31T13:27:31.381Z,46.88
2018-05-31T13:28:31.421Z,47.08
2018-05-31T13:29:33.425Z,47.45
2018-05-31T13:30:31.407Z,47.25
2018-05-31T13:40:01.759Z,49.60
2018-05-31T13:41:01.649Z,49.21
2018-05-31T13:42:03.798Z,48.92
2018-05-31T13:43:01.696Z,49.02
2018-05-31T13:44:03.838Z,49.11
2018-05-31T13:45:01.809Z,49.70
2018-05-31T13:46:03.880Z,50.37
2018-05-31T13:47:01.778Z,50.27
2018-05-31T13:48:01.843Z,50.17
2018-05-31T13:49:01.795Z,50.27
2018-05-31T13:59:39.095Z,50.95
2018-05-31T14:00:41.218Z,50.54
2018-05-31T14:01:39.141Z,50.93
2018-05-31T14:02:51.000Z,51.51
2018-05-31T14:03:39.178Z,51.61
2018-05-31T14:04:39.213Z,51.78
2018-05-31T14:05:39.135Z,51.78
2018-05-31T14:06:39.268Z,51.98
2018-05-31T14:07:39.175Z,51.98
2018-05-31T14:08:39.280Z,51.98
2018-05-31T14:09:39.212Z,52.56
2018-05-31T14:10:39.253Z,51.95
2018-05-31T14:11:39.260Z,52.83
2018-05-31T14:12:39.376Z,52.64
2018-05-31T14:13:39.268Z,52.93
2018-05-31T14:14:40.413Z,53.13
2018-05-31T14:15:39.335Z,53.03
2018-05-31T14:16:39.396Z,53.52
2018-05-31T14:17:39.368Z,53.42
2018-05-31T14:18:39.414Z,54.01
2018-05-31T14:19:39.390Z,55.06
2018-05-31T14:20:40.465Z,55.26
2018-05-31T14:22:36.554Z,56.92
2018-05-31T14:23:37.545Z,57.50
2018-05-31T14:24:36.557Z,57.57
2018-05-31T14:25:36.585Z,58.06
2018-05-31T14:26:36.633Z,58.45
2018-05-31T14:27:36.605Z,59.14
2018-05-31T14:28:36.619Z,59.14
2018-05-31T14:29:36.633Z,59.69
2018-05-31T14:30:36.676Z,59.99
2018-05-31T14:31:37.760Z,60.28
2018-05-31T14:32:36.686Z,60.77
2018-05-31T14:33:37.774Z,61.04
2018-05-31T14:34:36.727Z,61.04
2018-05-31T14:35:36.785Z,60.74
2018-05-31T14:37:59.379Z,61.52
2018-05-31T14:38:59.053Z,61.88
2018-05-31T14:39:59.178Z,61.88
2018-05-31T14:40:59.100Z,62.18
2018-05-31T14:42:00.164Z,62.56
2018-05-31T14:42:59.120Z,62.66
2018-05-31T14:44:48.161Z,63.41
2018-05-31T14:46:02.858Z,62.44
2018-05-31T14:46:51.024Z,62.18
2018-05-31T14:48:09.189Z,61.50
2018-05-31T14:50:23.657Z,65.11
2018-05-31T14:51:23.631Z,67.21
2018-05-31T14:52:24.750Z,68.44
2018-05-31T14:53:23.648Z,69.67
2018-05-31T14:54:24.793Z,70.84
2018-05-31T14:55:23.728Z,72.65
2018-05-31T14:56:23.798Z,73.97
2018-05-31T14:57:23.721Z,74.56
2018-05-31T14:58:23.765Z,75.20
2018-05-31T15:00:36.301Z,77.29
2018-05-31T15:01:36.447Z,75.65
2018-05-31T15:02:36.303Z,75.65
2018-05-31T15:03:36.329Z,77.16
2018-05-31T15:04:36.363Z,76.48
2018-05-31T15:05:36.505Z,75.87
2018-05-31T15:06:36.362Z,76.64
2018-05-31T15:07:36.398Z,77.61
2018-05-31T15:08:38.533Z,77.90
2018-05-31T15:09:36.419Z,77.90
2018-05-31T15:11:23.461Z,77.65
2018-05-31T15:12:23.346Z,77.51
2018-05-31T15:13:23.389Z,77.75
2018-05-31T15:14:23.538Z,77.55
2018-05-31T15:15:23.409Z,77.45
2018-05-31T15:16:23.550Z,77.94
2018-05-31T15:17:23.442Z,76.58
2018-05-31T15:18:24.673Z,76.72
2018-05-31T15:19:23.498Z,75.61
2018-05-31T15:20:23.570Z,75.74
2018-05-31T15:21:23.527Z,75.42
2018-05-31T15:22:23.624Z,75.94
2018-05-31T15:23:23.584Z,75.74
2018-05-31T15:24:23.720Z,76.14
2018-05-31T15:25:23.574Z,76.00
2018-05-31T15:26:24.796Z,75.23
2018-05-31T15:28:12.204Z,75.07
2018-05-31T15:29:12.032Z,75.45
2018-05-31T15:30:12.022Z,76.32
2018-05-31T15:31:12.193Z,76.81
2018-05-31T15:32:12.106Z,76.72
2018-05-31T15:33:12.198Z,76.04
2018-05-31T15:34:12.192Z,75.84
2018-05-31T15:35:12.337Z,75.26
2018-05-31T15:36:12.120Z,75.26
2018-05-31T15:37:14.275Z,74.97
2018-05-31T15:38:12.174Z,75.07
2018-05-31T15:40:02.374Z,75.36
2018-05-31T15:41:02.449Z,75.26
2018-05-31T15:42:02.580Z,74.87
2018-05-31T15:43:02.580Z,75.45
2018-05-31T15:44:02.479Z,75.36
2018-05-31T15:45:02.575Z,75.65
2018-05-31T15:46:02.486Z,76.23
2018-05-31T15:47:04.626Z,76.42
2018-05-31T15:48:58.581Z,76.91
2018-05-31T15:49:59.649Z,77.36
2018-05-31T15:50:58.546Z,77.75
2018-05-31T15:52:00.688Z,78.23
2018-05-31T15:52:58.636Z,78.33
2018-05-31T15:53:58.701Z,78.77
2018-05-31T15:54:58.598Z,79.06
2018-05-31T15:55:58.749Z,78.91
2018-05-31T15:56:58.639Z,79.49